Time;durP1;ratioP1;P1;durP2;ratioP2;P2;SDS_P1;SDS_P2;PMS_P1;PMS_P2;Temp;Humidity;BMP_temperature;BMP_pressure;BME280_temperature;BME280_humidity;BME280_pressure;Samples;Min_cycle;Max_cycle;Signal;HPM_P1;HPM_P2
2023/04/27 11:10:42;;;;;;;;;;;;;;;;;;;;;
2023/04/27 11:18:07;;;;;;;9.80;3.90;;;;;;;10.87;56.86;99381.19;271642;1276;22637;-87
2023/04/27 11:24:18;;;;;;;5.30;4.20;;;;;;;10.32;56.81;99378.52;269796;1277;22562;-85
2023/04/27 11:30:21;;;;;;;10.10;4.10;;;;;;;9.90;56.41;99385.67;269426;1275;23056;-87
2023/04/27 11:37:23;;;;;;;9.60;5.30;;;;;;;9.74;56.55;99383.08;269993;1271;23967;-87
2023/04/27 11:43:41;;;;;;;7.40;3.60;;;;;;;10.02;56.93;99375.75;271971;1277;22684;-86
2023/04/27 11:49:47;;;;;;;;;;;;;;;10.70;56.49;99370.34;269359;1275;23364;-89
2023/04/27 11:55:51;;;;;;;10.00;4.30;;;;;;;11.32;54.18;99363.55;268733;1275;22699;-86
2023/04/27 12:01:54;;;;;;;10.40;4.90;;;;;;;11.47;53.42;99362.80;269237;1268;23105;-87
2023/04/27 12:08:05;;;;;;;9.90;4.20;;;;;;;11.41;53.25;99369.02;270158;1277;22268;-86
2023/04/27 12:14:06;;;;;;;7.30;3.80;;;;;;;11.19;53.43;99375.81;269887;1274;23690;-87
2023/04/27 12:21:13;;;;;;;9.70;4.80;;;;;;;11.01;53.16;99377.27;271734;1275;22231;-87
2023/04/27 12:28:00;;;;;;;9.60;4.40;;;;;;;10.78;53.20;99372.19;271519;1268;22251;-88
2023/04/27 12:34:01;;;;;;;10.80;5.40;;;;;;;10.80;53.45;99372.48;271409;1276;25308;-88
2023/04/27 12:40:07;;;;;;;9.10;5.60;;;;;;;10.84;53.33;99366.91;271308;1283;22221;-86
2023/04/27 12:46:24;;;;;;;;;;;;;;;11.06;53.65;99366.84;269779;1268;22528;-87
2023/04/27 12:52:52;;;;;;;11.00;6.00;;;;;;;11.21;53.02;99359.31;271462;1275;22229;-89
2023/04/27 12:59:15;;;;;;;12.20;6.70;;;;;;;11.57;52.69;99357.39;272245;1275;22445;-86
2023/04/27 13:05:21;;;;;;;9.80;5.50;;;;;;;12.23;51.91;99355.03;272568;1275;22204;-87
2023/04/27 13:11:26;;;;;;;10.10;4.90;;;;;;;12.56;50.76;99352.92;271795;1264;23541;-88
2023/04/27 13:17:27;;;;;;;9.20;4.20;;;;;;;12.50;51.13;99356.09;264639;1271;10141783;-88
2023/04/27 13:23:53;;;;;;;11.00;4.90;;;;;;;12.27;51.33;99350.30;272021;1269;22182;-87
2023/04/27 13:29:56;;;;;;;13.50;5.00;;;;;;;11.90;50.88;99348.80;272699;1269;22240;-88
2023/04/27 13:36:11;;;;;;;8.00;4.60;;;;;;;11.61;51.47;99347.19;271087;1270;22553;-88
2023/04/27 13:42:12;;;;;;;9.60;4.70;;;;;;;11.35;51.46;99345.96;271726;1269;22394;-88
2023/04/27 13:48:13;;;;;;;12.20;5.50;;;;;;;11.22;52.50;99347.13;272977;1269;22315;-89
2023/04/27 13:54:17;;;;;;;8.50;3.90;;;;;;;11.18;51.96;99357.63;272257;1269;23454;-86
2023/04/27 14:00:52;;;;;;;8.60;3.80;;;;;;;11.14;51.39;99359.30;271996;1265;22557;-88
2023/04/27 14:07:06;;;;;;;5.90;3.40;;;;;;;11.29;51.95;99359.81;272792;1269;22670;-87
2023/04/27 14:13:34;;;;;;;5.60;3.90;;;;;;;11.63;50.87;99351.13;271728;1269;22111;-88
2023/04/27 14:19:39;;;;;;;9.40;3.90;;;;;;;11.94;50.89;99349.87;271791;1269;22560;-88
2023/04/27 14:25:45;;;;;;;8.00;4.40;;;;;;;12.26;50.38;99358.77;272602;1258;22251;-87
2023/04/27 14:32:09;;;;;;;7.60;3.60;;;;;;;12.37;49.92;99360.98;272159;1269;23639;-88
2023/04/27 14:38:18;;;;;;;11.10;4.20;;;;;;;12.22;49.99;99364.67;273044;1269;22446;-88
2023/04/27 14:44:27;;;;;;;7.80;4.10;;;;;;;12.00;49.70;99363.81;271770;1267;23261;-88
2023/04/27 14:51:04;;;;;;;9.10;4.30;;;;;;;11.98;49.51;99363.16;273328;1267;22262;-88
2023/04/27 14:57:44;;;;;;;8.90;4.10;;;;;;;12.37;48.59;99367.56;273115;1269;22939;-87
2023/04/27 15:04:17;;;;;;;9.90;3.80;;;;;;;12.73;47.95;99373.62;272641;1269;23397;-88
2023/04/27 15:10:18;;;;;;;8.90;3.90;;;;;;;12.96;48.01;99380.09;273634;1270;23773;-87
2023/04/27 15:25:05;;;;;;;5.80;3.70;;;;;;;12.23;47.39;99391.59;272780;1269;22505;-88
2023/04/27 15:31:28;;;;;;;6.30;3.90;;;;;;;11.87;48.77;99391.48;272488;1269;22372;-87
2023/04/27 15:37:35;;;;;;;8.60;4.00;;;;;;;11.74;49.13;99391.16;270885;1259;23824;-88
2023/04/27 15:59:27;;;;;;;12.10;4.10;;;;;;;11.07;48.38;99396.68;273606;1276;22234;-87
2023/04/27 16:05:28;;;;;;;8.10;4.60;;;;;;;10.90;48.47;99397.59;273138;1269;22404;-87
2023/04/27 16:11:59;;;;;;;12.90;4.00;;;;;;;10.82;48.38;99398.63;272670;1261;22635;-86
2023/04/27 16:18:45;;;;;;;12.70;6.10;;;;;;;10.75;48.70;99400.46;273373;1269;22501;-88
2023/04/27 16:24:46;;;;;;;12.30;5.90;;;;;;;10.69;49.15;99401.31;273178;1269;22407;-87
2023/04/27 16:30:55;;;;;;;9.50;4.40;;;;;;;10.56;48.66;99407.03;273371;1269;22580;-87
2023/04/27 16:37:58;;;;;;;;;;;;;;;;;;;;;
2023/04/27 16:45:40;;;;;;;11.20;5.00;;;;;;;10.45;48.93;99409.19;271682;1274;22252;-87
2023/04/27 16:51:53;;;;;;;12.70;4.80;;;;;;;10.39;48.64;99409.30;272329;1268;22238;-88
2023/04/27 16:58:44;;;;;;;9.70;4.60;;;;;;;10.22;48.25;99404.98;272309;1276;22281;-88
2023/04/27 17:22:31;;;;;;;10.70;4.90;;;;;;;9.53;50.06;99423.70;271464;1274;23422;-88
2023/04/27 17:28:58;;;;;;;10.40;4.70;;;;;;;9.35;50.93;99433.38;271904;1274;22362;-88
2023/04/27 17:35:46;;;;;;;8.40;4.00;;;;;;;9.15;50.70;99431.05;271710;1276;22557;-88
2023/04/27 17:41:48;;;;;;;7.10;4.30;;;;;;;9.04;50.81;99432.34;269855;1259;22567;-89
2023/04/27 17:48:17;;;;;;;8.60;4.90;;;;;;;8.99;51.62;99437.84;270597;1274;24229;-88
2023/04/27 17:54:27;;;;;;;9.70;4.90;;;;;;;8.94;51.77;99442.02;270453;1280;22285;-88
2023/04/27 18:00:55;;;;;;;16.90;5.10;;;;;;;8.80;51.90;99443.28;271203;1274;22291;-88
2023/04/27 18:07:17;;;;;;;17.30;8.60;;;;;;;8.64;51.94;99443.81;271571;1275;22259;-89
2023/04/27 18:13:18;;;;;;;14.70;7.30;;;;;;;8.49;53.15;99445.99;271924;1267;23596;-88
2023/04/27 18:33:44;;;;;;;33.30;14.70;;;;;;;7.96;55.28;99465.60;272685;1269;23447;-88
2023/04/27 18:39:45;;;;;;;35.80;18.20;;;;;;;7.81;56.44;99473.90;273024;1270;22329;-88
2023/04/27 18:46:38;;;;;;;44.60;20.60;;;;;;;7.77;57.02;99475.88;272785;1269;22532;-88
2023/04/27 18:53:09;;;;;;;56.40;23.40;;;;;;;7.67;57.11;99482.04;272507;1269;22411;-87
2023/04/27 18:59:10;;;;;;;47.40;21.80;;;;;;;7.59;58.36;99485.31;273338;1269;22350;-88
2023/04/27 19:05:41;;;;;;;52.70;22.10;;;;;;;7.44;58.82;99485.77;272947;1269;22345;-88
2023/04/27 19:11:55;;;;;;;201.40;72.60;;;;;;;7.23;59.58;99484.32;272465;1268;22534;-88
2023/04/27 19:17:56;;;;;;;201.60;68.30;;;;;;;7.03;60.04;99486.63;273026;1269;22345;-88
2023/04/27 19:23:57;;;;;;;97.10;42.40;;;;;;;6.81;60.52;99487.27;273088;1269;22214;-87
2023/04/27 19:30:58;;;;;;;44.70;23.00;;;;;;;6.60;61.03;99488.75;272758;1269;22970;-88
2023/04/27 19:45:04;;;;;;;32.30;17.90;;;;;;;6.20;62.75;99491.54;272902;1269;22293;-88
2023/04/27 19:51:09;;;;;;;30.60;18.60;;;;;;;6.07;63.89;99491.36;272574;1269;22415;-87
2023/04/27 19:57:10;;;;;;;34.20;18.40;;;;;;;5.91;64.79;99488.20;273284;1269;23397;-88
2023/04/27 20:03:13;;;;;;;45.20;24.60;;;;;;;5.69;65.50;99490.69;272193;1269;22323;-88
2023/04/27 20:09:34;;;;;;;52.20;26.00;;;;;;;5.40;65.47;99497.83;273361;1269;23021;-88
2023/04/27 20:16:03;;;;;;;64.00;29.30;;;;;;;5.10;65.94;99499.14;273136;1270;22263;-87
2023/04/27 20:22:05;;;;;;;95.10;36.00;;;;;;;4.90;66.63;99501.95;273189;1270;23557;-87
2023/04/27 20:28:09;;;;;;;84.80;33.60;;;;;;;4.76;67.36;99504.10;273496;1269;22384;-87
2023/04/27 20:57:47;;;;;;;71.30;36.00;;;;;;;3.70;70.04;99520.50;273440;1272;22350;-87
2023/04/27 21:26:06;;;;;;;52.10;29.80;;;;;;;2.99;71.65;99530.41;272273;1278;22428;-86
2023/04/27 21:32:08;;;;;;;50.00;29.50;;;;;;;2.85;72.44;99532.20;272576;1271;23474;-87
2023/04/27 21:38:10;;;;;;;51.80;28.70;;;;;;;2.74;72.50;99534.34;273242;1272;22219;-87
2023/04/27 21:44:11;;;;;;;57.90;30.90;;;;;;;2.52;72.52;99535.52;273488;1270;22357;-87
2023/04/27 21:50:19;;;;;;;52.60;29.50;;;;;;;2.36;73.34;99538.34;273684;1275;22389;-87
2023/04/27 22:05:05;;;;;;;72.50;36.00;;;;;;;2.21;74.69;99546.20;273544;1275;23380;-87
2023/04/27 22:27:17;;;;;;;57.40;28.00;;;;;;;1.80;75.85;99554.31;273648;1275;22399;-87
2023/04/27 23:20:00;;;;;;;65.80;35.60;;;;;;;1.35;77.55;99545.48;273363;1272;22197;-87
2023/04/27 23:26:30;;;;;;;57.40;32.00;;;;;;;1.29;79.08;99547.36;272730;1272;22293;-87
2023/04/27 23:32:40;;;;;;;64.60;33.90;;;;;;;1.27;79.58;99543.02;273238;1273;22288;-87
2023/04/27 23:39:08;;;;;;;66.20;32.60;;;;;;;1.25;79.93;99540.26;272832;1269;22231;-87
2023/04/27 23:45:37;;;;;;;56.70;31.60;;;;;;;1.31;80.95;99539.70;273419;1269;22542;-87
2023/04/27 23:52:28;;;;;;;55.70;30.80;;;;;;;1.42;81.49;99540.17;273461;1275;22234;-87
2023/04/27 23:58:49;;;;;;;70.10;32.40;;;;;;;1.48;81.70;99540.89;272550;1273;22551;-87
